Stations météo

réclame
Mon MeteoGroup
Isola Di Salina, Italie (16415): Température de l'air & dewpoint: 18.01.2018 04:00:00 - 24.01.2018 04:00:00 (CET)Isola Di Salina, Italie (16415): Vitesse du vent: 18.01.2018 04:00:00 - 24.01.2018 04:00:00 (CET)Isola Di Salina, Italie (16415): Direction du vent: 18.01.2018 04:00:00 - 24.01.2018 04:00:00 (CET)Isola Di Salina, Italie (16415): reduced air pressure: 18.01.2018 04:00:00 - 24.01.2018 04:00:00 (CET)Isola Di Salina, Italie (16415): Quantités de précipitations: 18.01.2018 04:00:00 - 24.01.2018 04:00:00 (CET)
Date & Time tt [°C] td [°C] ff [km/h] ff [knt] dd ppp [hPa] rr [mm]
24.01.2018 04:00:00 - - - - - - -
24.01.2018 03:00:00 10,0 5,9 5 3 W 1026,5 -
24.01.2018 02:00:00 10,0 6,9 4 2 NNE 1026,3 -
24.01.2018 01:00:00 9,7 6,4 4 2 N 1025,9 0,0
24.01.2018 00:00:00 10,3 6,0 2 1 NNE 1025,8 -
23.01.2018 23:00:00 11,1 6,6 8 4 E 1025,1 -
23.01.2018 22:00:00 11,5 7,0 11 6 ENE 1024,7 -
23.01.2018 21:00:00 11,9 7,8 13 7 WSW 1024,2 -
23.01.2018 20:00:00 11,7 8,1 15 8 NE 1023,5 -
23.01.2018 19:00:00 11,6 9,5 13 7 ENE 1022,4 0,0
23.01.2018 18:00:00 11,1 9,7 9 5 ESE 1021,1 -
23.01.2018 17:00:00 11,2 10,1 8 4 S 1020,3 -
23.01.2018 16:00:00 11,5 10,6 15 8 ENE 1019,5 -
23.01.2018 15:00:00 11,9 11,3 21 11 ENE 1018,4 -
23.01.2018 14:00:00 12,4 11,8 8 4 N 1017,8 -
23.01.2018 13:00:00 12,5 11,5 8 4 NNW 1017,5 0,0
23.01.2018 12:00:00 13,6 12,5 22 12 NW 1016,9 -
23.01.2018 11:00:00 13,7 12,2 21 11 WNW 1016,7 -
23.01.2018 10:00:00 13,7 12,1 16 9 WNW 1016,4 -
23.01.2018 09:00:00 13,0 11,4 16 9 WNW 1016,0 -
23.01.2018 08:00:00 12,6 11,0 15 8 W 1015,8 -
23.01.2018 07:00:00 12,6 11,5 16 9 W 1015,8 -
23.01.2018 06:00:00 12,2 11,1 15 8 WNW 1015,1 -
23.01.2018 05:00:00 12,3 11,2 18 10 WSW 1015,5 -
23.01.2018 04:00:00 12,5 11,4 18 10 W 1015,6 -
23.01.2018 03:00:00 12,5 11,7 9 5 WNW 1015,8 -
23.01.2018 02:00:00 11,6 10,5 0 0 N 1015,8 -
23.01.2018 01:00:00 11,7 10,4 0 0 N 1016,1 0,0
23.01.2018 00:00:00 11,7 10,3 4 2 S 1016,4 -
22.01.2018 23:00:00 11,6 10,0 4 2 S 1016,6 -
22.01.2018 22:00:00 11,1 9,5 4 2 SSW 1016,3 -
22.01.2018 21:00:00 10,6 8,3 5 3 S 1016,2 -
22.01.2018 20:00:00 10,6 7,6 4 2 SSW 1016,3 -
22.01.2018 19:00:00 10,1 5,8 0 0 N 1016,3 0,0
22.01.2018 18:00:00 10,2 5,5 2 1 SSW 1016,3 -
22.01.2018 17:00:00 10,9 5,4 5 3 WNW 1015,7 -
22.01.2018 16:00:00 11,5 4,6 11 6 WNW 1015,8 -
22.01.2018 15:00:00 13,2 4,8 8 4 WNW 1015,5 -
22.01.2018 14:00:00 14,0 4,8 11 6 NW 1015,3 -
22.01.2018 13:00:00 14,6 6,1 11 6 NW 1015,7 0,0
22.01.2018 12:00:00 13,9 4,9 13 7 WNW 1016,2 -
22.01.2018 11:00:00 13,8 5,9 9 5 W 1016,3 -
22.01.2018 10:00:00 12,7 6,0 9 5 WNW 1015,9 -
22.01.2018 09:00:00 11,7 5,5 9 5 WNW 1015,1 -
22.01.2018 08:00:00 10,8 5,3 0 0 N 1014,9 -
22.01.2018 07:00:00 10,6 5,3 8 4 NNW 1014,1 0,0
22.01.2018 06:00:00 11,0 5,9 16 9 NNW 1013,2 -
22.01.2018 05:00:00 11,0 7,8 13 7 NNW 1012,9 -
22.01.2018 04:00:00 11,3 9,2 9 5 NW 1012,4 -
22.01.2018 03:00:00 11,8 10,2 11 6 NW 1011,9 -
22.01.2018 02:00:00 11,8 10,5 13 7 WNW 1011,5 -
22.01.2018 01:00:00 12,6 11,8 24 13 WNW 1010,6 0,0
22.01.2018 00:00:00 12,6 11,6 26 14 WNW 1010,0 -
21.01.2018 23:00:00 12,6 11,5 26 14 WNW 1009,4 -
21.01.2018 22:00:00 12,6 11,5 34 18 WNW 1008,8 -
21.01.2018 21:00:00 12,8 11,7 29 16 WNW 1008,4 -
21.01.2018 20:00:00 12,6 11,5 28 15 WNW 1007,6 -
21.01.2018 19:00:00 12,9 11,8 29 16 WNW 1007,0 -
21.01.2018 18:00:00 12,8 11,8 29 16 W 1005,9 -
21.01.2018 17:00:00 13,3 12,2 31 17 WNW 1005,3 -
21.01.2018 16:00:00 13,6 12,3 35 19 W 1004,7 -
21.01.2018 15:00:00 13,6 12,1 37 20 WNW 1004,4 -
21.01.2018 14:00:00 13,5 12,2 31 17 W 1004,7 -
21.01.2018 13:00:00 13,0 11,9 24 13 W 1006,2 -
21.01.2018 12:00:00 12,5 11,4 26 14 W 1007,2 -
21.01.2018 11:00:00 12,2 11,1 22 12 W 1008,4 -
21.01.2018 10:00:00 12,2 10,8 15 8 WSW 1009,1 -
21.01.2018 09:00:00 11,9 10,1 11 6 NNW 1009,4 -
21.01.2018 08:00:00 11,8 9,3 15 8 W 1009,7 -
21.01.2018 07:00:00 11,5 8,1 16 9 NW 1010,2 0,0
21.01.2018 06:00:00 11,3 7,0 5 3 E 1010,7 -
21.01.2018 05:00:00 11,3 6,8 18 10 W 1011,9 -
21.01.2018 04:00:00 10,7 6,0 8 4 W 1012,9 -
21.01.2018 03:00:00 10,4 6,1 13 7 WSW 1013,4 -
21.01.2018 02:00:00 10,6 7,4 15 8 W 1013,8 -
21.01.2018 01:00:00 10,9 8,4 9 5 W 1013,9 -
21.01.2018 00:00:00 10,4 8,1 11 6 WNW 1014,3 -
20.01.2018 23:00:00 10,9 8,6 9 5 W 1014,8 -
20.01.2018 22:00:00 10,8 8,0 9 5 W 1015,0 -
20.01.2018 21:00:00 10,9 7,9 9 5 W 1015,1 -
20.01.2018 20:00:00 11,3 8,8 13 7 WNW 1015,0 -
20.01.2018 19:00:00 11,5 7,6 15 8 W 1014,9 0,0
20.01.2018 18:00:00 11,4 7,7 9 5 W 1014,6 -
20.01.2018 17:00:00 11,0 6,1 11 6 W 1014,2 -
20.01.2018 16:00:00 11,5 6,4 9 5 W 1014,2 -
20.01.2018 15:00:00 12,2 6,8 18 10 WNW 1014,0 -
20.01.2018 14:00:00 12,6 7,4 26 14 WNW 1013,9 -
20.01.2018 13:00:00 13,0 8,2 22 12 WNW 1014,0 0,0
20.01.2018 12:00:00 13,2 9,8 15 8 W 1014,4 -
20.01.2018 11:00:00 13,2 9,2 9 5 NW 1014,9 -
20.01.2018 10:00:00 12,6 8,8 5 3 W 1015,2 -
20.01.2018 09:00:00 11,9 8,1 9 5 SW 1014,9 -
20.01.2018 08:00:00 11,7 9,1 2 1 SW 1014,8 -
20.01.2018 07:00:00 11,2 9,1 9 5 W 1014,4 0,0
20.01.2018 06:00:00 10,6 7,4 9 5 WNW 1013,5 -
20.01.2018 05:00:00 10,7 6,4 8 4 SSW 1013,8 -
20.01.2018 04:00:00 10,2 6,1 5 3 SW 1014,4 -
20.01.2018 03:00:00 9,5 6,4 0 0 N 1014,5 -
20.01.2018 02:00:00 9,8 6,7 2 1 SSW 1015,2 -
20.01.2018 01:00:00 9,8 6,8 4 2 SSW 1015,4 -
20.01.2018 00:00:00 10,0 7,0 5 3 SSW 1015,6 -
19.01.2018 23:00:00 10,3 7,3 8 4 SW 1015,8 -
19.01.2018 22:00:00 10,3 7,7 9 5 S 1015,5 -
19.01.2018 21:00:00 10,4 7,6 8 4 S 1015,8 -
19.01.2018 20:00:00 10,5 8,1 9 5 S 1015,8 -
19.01.2018 19:00:00 10,3 7,5 9 5 S 1016,2 0,0
19.01.2018 18:00:00 10,4 6,5 5 3 S 1015,9 -
19.01.2018 17:00:00 11,1 6,0 4 2 S 1016,1 -
19.01.2018 16:00:00 12,1 5,9 0 0 N 1016,3 -
19.01.2018 15:00:00 14,4 8,1 2 1 ENE 1015,9 -
19.01.2018 14:00:00 13,7 7,2 0 0 N 1016,5 -
19.01.2018 13:00:00 14,9 9,2 5 3 SSE 1017,0 0,0
19.01.2018 12:00:00 13,5 8,7 5 3 SE 1017,8 -
19.01.2018 11:00:00 13,7 9,3 5 3 SSE 1018,8 -
19.01.2018 10:00:00 13,3 10,8 11 6 S 1019,0 -
19.01.2018 09:00:00 10,8 8,9 4 2 NNW 1019,2 -
19.01.2018 08:00:00 8,7 5,8 0 0 N 1019,0 -
19.01.2018 07:00:00 8,8 6,0 0 0 N 1019,0 0,0
19.01.2018 06:00:00 8,6 5,3 4 2 SSW 1019,1 -
19.01.2018 05:00:00 9,1 5,0 5 3 SSW 1019,2 -
19.01.2018 04:00:00 9,7 6,2 9 5 WSW 1019,8 -
19.01.2018 03:00:00 10,3 7,1 11 6 W 1020,1 -
19.01.2018 02:00:00 10,7 8,1 9 5 W 1020,5 -
19.01.2018 01:00:00 10,5 7,0 9 5 WSW 1021,0 0,0
19.01.2018 00:00:00 10,3 5,8 9 5 W 1021,3 -
18.01.2018 23:00:00 10,4 5,5 11 6 W 1021,5 -
18.01.2018 22:00:00 10,3 5,2 9 5 WSW 1021,7 -
18.01.2018 21:00:00 10,2 4,7 8 4 SW 1022,1 -
18.01.2018 20:00:00 10,3 4,2 9 5 WSW 1022,2 -
18.01.2018 19:00:00 10,2 2,7 8 4 W 1022,2 0,0
18.01.2018 18:00:00 10,6 1,6 9 5 WSW 1022,5 -
18.01.2018 17:00:00 10,7 1,1 9 5 WSW 1022,5 -
18.01.2018 16:00:00 10,9 -0,1 9 5 WSW 1022,2 -
18.01.2018 15:00:00 13,4 1,9 9 5 W 1022,3 -
18.01.2018 14:00:00 13,8 2,6 13 7 NW 1022,6 -
18.01.2018 13:00:00 13,8 2,0 15 8 NW 1023,0 0,0
18.01.2018 12:00:00 13,4 1,6 22 12 NW 1023,0 -
18.01.2018 11:00:00 12,8 0,7 28 15 NNW 1023,1 -
18.01.2018 10:00:00 12,0 0,9 21 11 NNW 1022,4 -
18.01.2018 09:00:00 11,2 0,8 18 10 NW 1021,6 -
18.01.2018 08:00:00 10,6 1,6 21 11 NNW 1021,1 -
18.01.2018 07:00:00 10,7 1,1 31 17 NNW 1019,9 0,0
18.01.2018 06:00:00 10,7 1,1 35 19 NNW 1018,9 -
18.01.2018 05:00:00 11,0 0,6 42 23 NNW 1017,7 -
18.01.2018 04:00:00 11,5 2,4 46 25 NNW 1016,6 -

tt = Température de l'air
td = dewpoint
ff = Vitesse du vent
dd = Direction du vent
ppp = reduced air pressure
rr = Quantités de précipitations

stations d'obs. à proximité